createdAt,value
2022-11-13T00:00:12.902Z,101266.80
2022-11-13T00:01:18.126Z,101271.42
2022-11-13T00:02:20.141Z,101263.73
2022-11-13T00:03:22.908Z,101263.73
2022-11-13T00:04:24.885Z,101257.22
2022-11-13T00:05:26.954Z,101258.16
2022-11-13T00:06:28.950Z,101263.55
2022-11-13T00:07:31.957Z,101261.66
2022-11-13T00:08:35.483Z,101254.58
2022-11-13T00:09:37.384Z,101257.27
2022-11-13T00:10:39.490Z,101254.42
2022-11-13T00:11:41.357Z,101266.04
2022-11-13T00:12:43.425Z,101256.47
2022-11-13T00:13:46.535Z,101267.70
2022-11-13T00:14:49.216Z,101258.96
2022-11-13T00:16:02.524Z,101268.73
2022-11-13T00:17:04.442Z,101269.63
2022-11-13T00:18:06.311Z,101270.77
2022-11-13T00:19:08.202Z,101265.30
2022-11-13T00:20:10.475Z,101269.63
2022-11-13T00:21:16.931Z,101255.52
2022-11-13T00:22:20.623Z,101266.19
2022-11-13T00:23:23.307Z,101259.91
2022-11-13T00:24:26.274Z,101263.39
2022-11-13T00:25:28.350Z,101246.98
2022-11-13T00:26:30.699Z,101257.55
2022-11-13T00:27:32.743Z,101249.39
2022-11-13T00:28:34.867Z,101259.06
2022-11-13T00:29:36.894Z,101251.38
2022-11-13T00:30:38.874Z,101256.47
2022-11-13T00:31:40.748Z,101253.06
2022-11-13T00:32:42.648Z,101251.28
2022-11-13T00:34:50.017Z,101253.77
2022-11-13T00:35:52.025Z,101252.92
2022-11-13T00:36:54.005Z,101253.72
2022-11-13T00:37:55.858Z,101252.55
2022-11-13T00:38:57.743Z,101247.83
2022-11-13T00:40:00.478Z,101250.17
2022-11-13T00:41:02.849Z,101245.94
2022-11-13T00:42:05.401Z,101245.04
2022-11-13T00:43:07.478Z,101237.91
2022-11-13T00:44:09.352Z,101242.49
2022-11-13T00:45:11.371Z,101240.55
2022-11-13T00:46:13.356Z,101236.86
2022-11-13T00:47:15.225Z,101237.71
2022-11-13T00:48:17.311Z,101240.41
2022-11-13T00:49:19.206Z,101235.97
2022-11-13T00:50:21.808Z,101242.90
2022-11-13T00:51:24.192Z,101238.56
2022-11-13T00:52:26.469Z,101234.13
2022-11-13T00:53:28.352Z,101242.06
2022-11-13T00:54:30.321Z,101238.66
2022-11-13T00:55:32.274Z,101235.22
2022-11-13T00:56:34.274Z,101239.84
2022-11-13T00:57:36.154Z,101244.05
2022-11-13T00:58:38.044Z,101230.03
2022-11-13T00:59:39.939Z,101235.97
2022-11-13T01:00:44.670Z,101242.01
2022-11-13T01:01:46.618Z,101233.37
2022-11-13T01:02:48.659Z,101235.97
2022-11-13T01:03:51.233Z,101237.71
2022-11-13T01:04:54.037Z,101236.07
2022-11-13T01:05:55.912Z,101229.98
2022-11-13T01:06:57.949Z,101228.09
2022-11-13T01:08:00.173Z,101235.88
2022-11-13T01:09:02.895Z,101229.93
2022-11-13T01:10:05.546Z,101231.67
2022-11-13T01:11:13.545Z,101231.62
2022-11-13T01:12:15.752Z,101227.34
2022-11-13T01:13:20.183Z,101223.79
2022-11-13T01:14:22.387Z,101218.60
2022-11-13T01:15:25.524Z,101224.74
2022-11-13T01:16:28.134Z,101227.23
2022-11-13T01:17:30.138Z,101227.13
2022-11-13T01:18:33.047Z,101230.78
2022-11-13T01:19:34.934Z,101225.50
2022-11-13T01:20:37.399Z,101226.38
2022-11-13T01:21:39.300Z,101219.36
2022-11-13T01:22:41.183Z,101216.56
2022-11-13T01:23:43.254Z,101220.99
2022-11-13T01:24:45.200Z,101226.28
2022-11-13T01:25:47.088Z,101220.06
2022-11-13T01:26:49.188Z,101220.41
2022-11-13T01:27:51.234Z,101215.02
2022-11-13T01:28:54.891Z,101214.06
2022-11-13T01:29:56.855Z,101212.23
2022-11-13T01:30:58.935Z,101209.63
2022-11-13T01:32:00.870Z,101223.69
2022-11-13T01:33:02.936Z,101213.11
2022-11-13T01:34:04.863Z,101214.06
2022-11-13T01:35:07.025Z,101215.91
2022-11-13T01:36:15.679Z,101208.62
2022-11-13T01:37:18.139Z,101214.82
2022-11-13T01:38:20.000Z,101215.55
2022-11-13T01:39:21.873Z,101204.78
2022-11-13T01:40:24.419Z,101204.73
2022-11-13T01:41:29.825Z,101209.19
2022-11-13T01:42:32.642Z,101204.69
2022-11-13T01:44:53.398Z,101203.44
2022-11-13T01:46:05.114Z,101209.89
2022-11-13T01:47:08.879Z,101201.10
2022-11-13T01:48:11.804Z,101205.53
2022-11-13T01:49:29.679Z,101208.12
2022-11-13T01:50:31.976Z,101204.55
2022-11-13T01:51:37.543Z,101204.69
2022-11-13T05:51:10.696Z,101268.59
2022-11-13T05:52:12.622Z,101275.91
2022-11-13T05:53:14.505Z,101275.91
2022-11-13T05:54:16.899Z,101282.00
2022-11-13T05:55:23.176Z,101276.66
2022-11-13T05:56:32.654Z,101275.71
2022-11-13T05:57:34.581Z,101280.99
2022-11-13T05:58:37.836Z,101271.19
2022-11-13T05:59:39.717Z,101271.00
2022-11-13T06:00:42.108Z,101272.66
2022-11-13T06:01:44.086Z,101272.56
2022-11-13T06:02:46.207Z,101282.15
2022-11-13T06:03:49.576Z,101275.82
2022-11-13T06:04:52.907Z,101277.75
2022-11-13T06:05:55.619Z,101275.77
2022-11-13T06:06:58.657Z,101272.05
2022-11-13T06:08:00.617Z,101273.60
2022-11-13T06:09:04.955Z,101277.05
2022-11-13T06:10:08.495Z,101269.93
2022-11-13T06:11:13.944Z,101272.42
2022-11-13T06:12:16.038Z,101269.63
2022-11-13T06:13:22.825Z,101274.82
2022-11-13T06:14:24.785Z,101272.98
2022-11-13T06:15:26.651Z,101272.98
2022-11-13T06:16:32.891Z,101278.83
2022-11-13T06:17:34.870Z,101292.00
2022-11-13T06:18:39.457Z,101287.41
2022-11-13T06:19:41.370Z,101294.50
2022-11-13T06:20:43.406Z,101284.77
2022-11-13T06:21:45.270Z,101284.77
2022-11-13T06:22:47.131Z,101281.22
2022-11-13T06:23:49.539Z,101291.65
2022-11-13T06:24:51.451Z,101288.05
2022-11-13T06:26:03.395Z,101276.58
2022-11-13T06:27:05.397Z,101282.77
2022-11-13T06:28:07.348Z,101272.98
2022-11-13T06:29:11.946Z,101280.66
2022-11-13T06:30:14.859Z,101284.06
2022-11-13T06:31:20.525Z,101284.70
2022-11-13T06:32:22.498Z,101281.16
2022-11-13T06:33:24.369Z,101295.08
2022-11-13T06:34:26.329Z,101284.81
2022-11-13T06:35:28.245Z,101288.20
2022-11-13T06:36:34.131Z,101283.75
2022-11-13T06:37:36.490Z,101283.64
2022-11-13T06:38:40.189Z,101288.83
2022-11-13T06:39:46.722Z,101284.39
2022-11-13T06:40:50.406Z,101276.30
2022-11-13T06:41:53.171Z,101279.64
2022-11-13T06:42:55.155Z,101287.52
2022-11-13T06:44:02.626Z,101286.83
2022-11-13T06:45:06.170Z,101289.42
2022-11-13T06:46:15.176Z,101287.58
2022-11-13T06:47:17.265Z,101284.08
2022-11-13T06:48:19.111Z,101286.53
2022-11-13T06:49:21.004Z,101298.75
2022-11-13T06:50:23.406Z,101284.18
2022-11-13T06:51:30.067Z,101289.17
2022-11-13T06:52:33.816Z,101284.50
2022-11-13T06:53:38.682Z,101285.35
2022-11-13T06:54:40.612Z,101284.50
2022-11-13T06:55:45.684Z,101282.81
2022-11-13T06:56:47.680Z,101293.34
2022-11-13T06:57:49.540Z,101287.14
2022-11-13T06:58:53.324Z,101288.69
2022-11-13T06:59:55.555Z,101285.88
2022-11-13T07:00:57.577Z,101281.50
2022-11-13T07:01:59.722Z,101282.22
2022-11-13T07:03:02.456Z,101288.53
2022-11-13T07:04:04.768Z,101285.77
2022-11-13T07:05:07.598Z,101278.90
2022-11-13T07:06:14.281Z,101287.84
2022-11-13T07:07:17.726Z,101293.02
2022-11-13T07:08:19.770Z,101293.02
2022-11-13T07:09:21.651Z,101298.86
2022-11-13T07:10:23.694Z,101290.86
2022-11-13T07:11:26.032Z,101288.48
2022-11-13T07:12:28.348Z,101286.31
2022-11-13T07:13:30.387Z,101292.33
2022-11-13T07:14:32.290Z,101287.84
2022-11-13T07:15:36.078Z,101288.53
2022-11-13T07:17:04.317Z,101278.31
2022-11-13T07:17:42.203Z,101284.25
2022-11-13T07:20:26.172Z,101286.19
2022-11-13T07:21:30.767Z,101281.96
2022-11-13T07:22:32.944Z,101294.18
2022-11-13T07:23:36.067Z,101296.20
2022-11-13T07:24:38.222Z,101282.68
2022-11-13T07:25:40.947Z,101286.02
2022-11-13T07:26:43.804Z,101287.98
2022-11-13T07:27:47.307Z,101284.44
2022-11-13T07:28:51.227Z,101290.45
2022-11-13T07:29:55.670Z,101284.16
2022-11-13T07:30:59.358Z,101277.13
2022-11-13T07:32:01.414Z,101279.44
2022-11-13T07:33:04.561Z,101275.87
2022-11-13T07:34:06.606Z,101277.61
2022-11-13T07:35:09.394Z,101277.33
2022-11-13T07:36:11.886Z,101278.81
2022-11-13T07:37:13.759Z,101289.23
2022-11-13T07:38:16.463Z,101286.47
2022-11-13T07:39:18.623Z,101284.16
2022-11-13T07:40:20.687Z,101283.99
2022-11-13T07:41:22.594Z,101278.47
2022-11-13T07:42:24.497Z,101285.56
2022-11-13T07:43:26.558Z,101289.72
2022-11-13T07:44:52.791Z,101285.30
2022-11-13T07:45:32.453Z,101291.47
2022-11-13T07:46:35.017Z,101285.30
2022-11-13T07:47:37.339Z,101289.72
2022-11-13T07:48:39.263Z,101290.92
2022-11-13T07:49:41.269Z,101291.03
2022-11-13T07:50:43.241Z,101292.33
2022-11-13T07:51:45.141Z,101292.69
2022-11-13T07:52:46.996Z,101295.33
2022-11-13T07:53:48.874Z,101293.63
2022-11-13T07:54:50.841Z,101289.06
2022-11-13T07:55:52.839Z,101293.84
2022-11-13T07:56:54.811Z,101284.22
2022-11-13T07:57:58.213Z,101293.11
2022-11-13T07:59:00.202Z,101290.37
2022-11-13T08:00:03.726Z,101292.39
2022-11-13T08:01:06.495Z,101292.33
2022-11-13T08:02:12.234Z,101291.20
2022-11-13T08:03:17.758Z,101290.03
2022-11-13T08:04:19.764Z,101290.26
2022-11-13T08:05:22.844Z,101294.97
2022-11-13T08:06:24.835Z,101297.41
2022-11-13T08:07:26.833Z,101294.30
2022-11-13T08:08:29.089Z,101297.23
2022-11-13T08:09:32.042Z,101298.81
2022-11-13T08:10:35.280Z,101285.11
2022-11-13T08:11:37.483Z,101286.16
2022-11-13T08:12:39.681Z,101293.67
2022-11-13T08:13:41.555Z,101294.45
2022-11-13T08:14:43.418Z,101297.22
2022-11-13T08:15:45.336Z,101298.86
2022-11-13T08:16:47.405Z,101290.97
2022-11-13T08:18:02.133Z,101299.98
2022-11-13T08:19:04.985Z,101294.63
2022-11-13T08:20:08.896Z,101294.33
2022-11-13T08:21:14.887Z,101297.84
2022-11-13T08:22:14.628Z,101290.45
2022-11-13T08:23:16.526Z,101292.01
2022-11-13T08:24:20.364Z,101285.76
2022-11-13T08:25:22.659Z,101290.83
2022-11-13T08:26:25.184Z,101291.68
2022-11-13T08:27:27.099Z,101291.69
2022-11-13T08:28:29.303Z,101295.53
2022-11-13T08:29:33.745Z,101292.88
2022-11-13T08:30:37.983Z,101297.33
2022-11-13T08:31:42.864Z,101296.84
2022-11-13T08:32:46.642Z,101294.89
2022-11-13T08:33:48.635Z,101291.00
2022-11-13T08:34:50.547Z,101285.20
2022-11-13T08:35:57.564Z,101281.95
2022-11-13T08:37:00.494Z,101284.61
2022-11-13T08:38:03.789Z,101284.91
2022-11-13T08:39:05.699Z,101289.64
2022-11-13T08:40:09.463Z,101282.75
2022-11-13T08:41:11.453Z,101283.84
2022-11-13T08:42:13.717Z,101287.26
2022-11-13T08:43:17.223Z,101283.55
2022-11-13T08:44:19.145Z,101279.19
2022-11-13T08:45:21.073Z,101228.52
2022-11-13T08:46:23.551Z,101277.20
2022-11-13T08:47:29.421Z,101270.65
2022-11-13T08:48:31.582Z,101275.41
2022-11-13T08:49:34.908Z,101273.48
2022-11-13T08:50:38.141Z,101269.98
2022-11-13T08:51:40.129Z,101269.86
2022-11-13T08:52:42.031Z,101265.29
2022-11-13T08:53:43.999Z,101269.56
2022-11-13T08:54:47.305Z,101267.03
2022-11-13T08:55:49.505Z,101262.02
2022-11-13T08:56:56.552Z,101262.62
2022-11-13T08:57:58.539Z,101257.37
2022-11-13T08:59:00.562Z,101263.43
2022-11-13T09:00:03.623Z,101265.88
2022-11-13T09:01:05.518Z,101264.25
2022-11-13T09:02:11.069Z,101264.98
2022-11-13T09:03:14.496Z,101266.72
2022-11-13T09:04:16.609Z,101254.13
2022-11-13T09:05:19.336Z,101260.22
2022-11-13T09:06:21.319Z,101258.42
2022-11-13T09:07:27.143Z,101260.23
2022-11-13T09:08:30.099Z,101256.00
2022-11-13T09:09:32.373Z,101257.52
2022-11-13T09:10:34.514Z,101256.97
2022-11-13T09:11:36.670Z,101249.50
2022-11-13T09:12:38.567Z,101264.86
2022-11-13T09:13:44.997Z,101250.82
2022-11-13T09:14:44.219Z,101257.83
2022-11-13T09:15:46.544Z,101239.14
2022-11-13T09:16:48.567Z,101253.16
2022-11-13T09:17:52.195Z,101255.23
2022-11-13T09:18:54.259Z,101248.88
2022-11-13T09:20:02.164Z,101251.16
2022-11-13T09:21:03.067Z,101252.01
2022-11-13T09:22:05.070Z,101253.62
2022-11-13T09:23:07.695Z,101253.81
2022-11-13T09:24:09.719Z,101252.86
2022-11-13T09:25:11.691Z,101253.52
2022-11-13T09:26:14.596Z,101258.92
2022-11-13T09:27:17.531Z,101253.68
2022-11-13T09:28:19.716Z,101258.55
2022-11-13T09:29:22.871Z,101247.39
2022-11-13T09:30:25.607Z,101249.98
2022-11-13T09:31:27.715Z,101249.98
2022-11-13T09:32:29.660Z,101246.05
2022-11-13T09:33:34.569Z,101248.09
2022-11-13T09:34:36.471Z,101242.25
2022-11-13T09:35:38.341Z,101248.88
2022-11-13T09:36:40.687Z,101253.77
2022-11-13T09:37:43.383Z,101253.89
2022-11-13T09:38:45.276Z,101249.67
2022-11-13T09:39:48.235Z,101250.87
2022-11-13T09:40:56.788Z,101244.58
2022-11-13T09:42:11.190Z,101237.48
2022-11-13T09:44:20.504Z,101241.55
2022-11-13T09:45:23.391Z,101246.19
2022-11-13T09:46:38.498Z,101248.38
2022-11-13T09:47:44.076Z,101247.05
2022-11-13T09:48:59.185Z,101245.72
2022-11-13T09:50:11.519Z,101246.05
2022-11-13T09:51:20.288Z,101242.91
2022-11-13T09:52:26.072Z,101250.36
2022-11-13T09:53:31.946Z,101245.05
2022-11-13T09:54:34.511Z,101241.09
2022-11-13T09:55:40.168Z,101244.53
2022-11-13T09:56:52.080Z,101240.13
2022-11-13T09:59:28.668Z,101248.98
2022-11-13T10:00:33.803Z,101246.23
2022-11-13T10:02:03.029Z,101246.95
2022-11-13T10:03:54.602Z,101235.88
2022-11-13T10:05:08.654Z,101238.08
2022-11-13T10:06:14.762Z,101229.94
2022-11-13T10:07:24.150Z,101235.77
2022-11-13T10:08:39.013Z,101234.16
2022-11-13T10:09:52.127Z,101234.83
2022-11-13T10:11:07.694Z,101233.25
2022-11-13T10:12:13.385Z,101234.44
2022-11-13T10:13:19.622Z,101238.70
2022-11-13T10:14:25.847Z,101231.52
2022-11-13T10:15:29.965Z,101236.70
2022-11-13T10:16:44.921Z,101232.86
2022-11-13T14:31:43.936Z,101170.66
2022-11-13T14:32:47.379Z,101175.11
2022-11-13T14:33:50.398Z,101175.11
2022-11-13T14:34:54.740Z,101174.22
2022-11-13T14:35:58.259Z,101176.06
2022-11-13T14:37:19.328Z,101169.04
2022-11-13T14:38:24.592Z,101169.04
2022-11-13T14:39:32.634Z,101165.37
2022-11-13T14:40:35.527Z,101166.34
2022-11-13T14:41:47.176Z,101170.72
2022-11-13T14:43:01.876Z,101168.98
2022-11-13T14:44:04.617Z,101175.22
2022-11-13T14:45:24.336Z,101173.42
2022-11-13T14:46:33.075Z,101169.92
2022-11-13T14:47:36.639Z,101176.06
2022-11-13T14:48:38.634Z,101176.06
2022-11-13T14:49:40.645Z,101177.80
2022-11-13T14:51:01.339Z,101176.75
2022-11-13T14:52:04.480Z,101175.05
2022-11-13T14:53:09.396Z,101165.48
2022-11-13T14:55:52.133Z,101171.19
2022-11-13T14:56:55.541Z,101162.89
2022-11-13T14:57:58.387Z,101163.75
2022-11-13T14:59:11.034Z,101174.33
2022-11-13T15:00:20.793Z,101169.98
2022-11-13T15:01:25.593Z,101167.50
2022-11-13T15:02:28.268Z,101172.73
2022-11-13T15:03:30.797Z,101173.42
2022-11-13T15:04:37.807Z,101183.20
2022-11-13T15:05:38.209Z,101176.17
2022-11-13T15:06:40.410Z,101177.09
2022-11-13T15:07:45.941Z,101183.27
2022-11-13T15:08:51.425Z,101184.91
2022-11-13T15:09:53.748Z,101177.20
2022-11-13T15:10:56.658Z,101186.87
2022-11-13T15:11:58.603Z,101179.84
2022-11-13T15:13:00.840Z,101183.31
2022-11-13T15:14:04.612Z,101182.27
2022-11-13T15:15:11.035Z,101184.00
2022-11-13T15:16:18.203Z,101187.61
2022-11-13T15:17:21.942Z,101195.60
2022-11-13T15:18:24.701Z,101188.02
2022-11-13T15:19:32.567Z,101183.53
2022-11-13T15:20:37.080Z,101183.48
2022-11-13T15:21:40.081Z,101181.80
2022-11-13T15:22:42.397Z,101197.77
2022-11-13T15:23:44.260Z,101183.53
2022-11-13T15:24:46.108Z,101186.34
2022-11-13T15:25:49.090Z,101185.38
2022-11-13T15:26:51.138Z,101189.63
2022-11-13T15:27:52.987Z,101191.36
2022-11-13T15:28:55.228Z,101185.27
2022-11-13T15:29:57.235Z,101188.82
2022-11-13T15:30:59.241Z,101182.89
2022-11-13T15:32:01.177Z,101194.33
2022-11-13T15:33:15.108Z,101190.00
2022-11-13T15:34:17.578Z,101179.31
2022-11-13T15:35:20.449Z,101185.59
2022-11-13T15:36:22.736Z,101183.75
2022-11-13T15:37:25.183Z,101176.72
2022-11-13T15:38:27.359Z,101184.55
2022-11-13T15:39:29.229Z,101183.64
2022-11-13T15:40:31.416Z,101183.75
2022-11-13T15:41:35.231Z,101187.30
2022-11-13T15:42:37.217Z,101182.06
2022-11-13T15:44:51.034Z,101177.34
2022-11-13T15:45:52.909Z,101183.11
2022-11-13T15:46:55.902Z,101180.52
2022-11-13T15:47:59.365Z,101182.84
2022-11-13T15:49:04.814Z,101185.59
2022-11-13T15:50:15.767Z,101182.01
2022-11-13T15:51:28.140Z,101183.86
2022-11-13T15:53:51.872Z,101180.14
2022-11-13T15:54:59.182Z,101190.19
2022-11-13T15:56:13.509Z,101181.31
2022-11-13T15:57:22.219Z,101182.52
2022-11-13T15:58:29.307Z,101190.35
2022-11-13T15:59:33.703Z,101190.41
2022-11-13T16:00:36.831Z,101193.80
2022-11-13T16:01:40.628Z,101193.95
2022-11-13T16:02:45.751Z,101200.09
2022-11-13T16:03:51.882Z,101199.19
2022-11-13T16:05:01.380Z,101197.50
2022-11-13T16:06:04.654Z,101190.35
2022-11-13T16:07:14.907Z,101195.64
2022-11-13T16:08:17.465Z,101191.20
2022-11-13T16:09:21.091Z,101194.75
2022-11-13T16:10:25.778Z,101196.44
2022-11-13T16:11:31.878Z,101191.25
2022-11-13T16:12:34.009Z,101198.65
2022-11-13T16:13:38.669Z,101198.65
2022-11-13T16:14:40.784Z,101195.84
2022-11-13T16:15:43.085Z,101197.74
2022-11-13T16:16:47.609Z,101203.83
2022-11-13T16:17:53.843Z,101207.38
2022-11-13T16:19:00.196Z,101203.68
2022-11-13T16:20:04.196Z,101197.02
2022-11-13T16:21:09.962Z,101200.39
2022-11-13T16:22:19.383Z,101194.31
2022-11-13T16:23:22.011Z,101207.59
2022-11-13T16:24:25.053Z,101197.90
2022-11-13T16:25:28.753Z,101204.14
2022-11-13T16:26:30.718Z,101194.38
2022-11-13T16:27:34.371Z,101202.41
2022-11-13T16:28:52.864Z,101205.88
2022-11-13T16:29:40.072Z,101201.45
2022-11-13T16:30:43.600Z,101198.86
2022-11-13T16:31:45.677Z,101210.42
2022-11-13T16:32:48.349Z,101200.70
2022-11-13T16:33:50.228Z,101203.44
2022-11-13T16:34:52.116Z,101202.41
2022-11-13T16:35:54.593Z,101204.14
2022-11-13T16:36:59.430Z,101200.70
2022-11-13T16:38:04.687Z,101196.27
2022-11-13T16:39:10.399Z,101191.83
2022-11-13T16:40:16.601Z,101198.95
2022-11-13T16:41:19.126Z,101202.64
2022-11-13T16:42:20.998Z,101200.80
2022-11-13T16:43:22.919Z,101195.52
2022-11-13T16:44:25.296Z,101189.63
2022-11-13T16:45:27.278Z,101199.27
2022-11-13T16:46:34.929Z,101198.36
2022-11-13T16:47:37.243Z,101201.00
2022-11-13T16:48:39.873Z,101209.73
2022-11-13T16:49:41.853Z,101196.52
2022-11-13T16:50:44.008Z,101194.91
2022-11-13T16:51:46.100Z,101193.17
2022-11-13T16:52:47.967Z,101204.69
2022-11-13T16:53:51.131Z,101202.05
2022-11-13T16:54:53.240Z,101207.20
2022-11-13T16:55:55.137Z,101199.27
2022-11-13T16:56:57.213Z,101201.10
2022-11-13T16:57:59.098Z,101203.75
2022-11-13T16:59:01.705Z,101206.09
2022-11-13T17:00:06.830Z,101207.09
2022-11-13T17:01:15.533Z,101204.69
2022-11-13T17:02:18.211Z,101196.02
2022-11-13T17:03:24.301Z,101196.02
2022-11-13T17:04:26.438Z,101202.19
2022-11-13T17:05:30.052Z,101204.69
2022-11-13T17:06:36.684Z,101203.14
2022-11-13T17:07:39.411Z,101205.73
2022-11-13T17:08:41.590Z,101201.41
2022-11-13T17:09:45.189Z,101207.42
2022-11-13T17:10:55.700Z,101200.41
2022-11-13T17:11:58.119Z,101204.09
2022-11-13T17:13:00.744Z,101210.37
2022-11-13T17:14:04.380Z,101213.06
2022-11-13T17:15:08.056Z,101205.08
2022-11-13T17:16:14.549Z,101214.02
2022-11-13T17:17:16.690Z,101216.45
2022-11-13T17:18:19.539Z,101216.45
2022-11-13T17:19:21.650Z,101207.12
2022-11-13T17:20:23.919Z,101218.59
2022-11-13T17:21:28.322Z,101215.95
2022-11-13T17:22:30.234Z,101226.42
2022-11-13T17:23:34.660Z,101219.44
2022-11-13T17:24:37.316Z,101216.84
2022-11-13T17:25:39.326Z,101224.63
2022-11-13T17:26:41.292Z,101223.07
2022-11-13T17:27:43.479Z,101226.56
2022-11-13T17:28:46.167Z,101224.77
2022-11-13T17:29:48.034Z,101220.47
2022-11-13T17:30:51.859Z,101219.48
2022-11-13T17:31:56.232Z,101223.92
2022-11-13T17:32:58.787Z,101219.63
2022-11-13T17:34:01.571Z,101221.33
2022-11-13T17:35:05.169Z,101220.42
2022-11-13T17:36:10.497Z,101216.05
2022-11-13T17:37:13.155Z,101215.33
2022-11-13T17:38:15.035Z,101215.33
2022-11-13T17:39:16.923Z,101217.03
2022-11-13T17:40:19.229Z,101219.72
2022-11-13T17:41:22.321Z,101223.26
2022-11-13T17:42:24.848Z,101225.14
2022-11-13T17:43:27.824Z,101231.28
2022-11-13T17:44:30.069Z,101224.16
2022-11-13T17:45:37.668Z,101231.23
2022-11-13T17:46:39.673Z,101231.23
2022-11-13T17:47:41.587Z,101236.52
2022-11-13T17:48:45.673Z,101231.28
2022-11-13T17:49:47.751Z,101230.37
2022-11-13T17:50:57.593Z,101236.52
2022-11-13T17:51:59.626Z,101241.95
2022-11-13T17:53:01.713Z,101231.42
2022-11-13T17:54:03.867Z,101231.38
2022-11-13T17:55:06.603Z,101234.02
2022-11-13T17:56:10.645Z,101240.37
2022-11-13T17:57:13.068Z,101235.95
2022-11-13T17:58:16.157Z,101241.19
2022-11-13T17:59:18.050Z,101236.66
2022-11-13T18:00:20.059Z,101240.37
2022-11-13T18:01:23.900Z,101241.23
2022-11-13T18:02:26.015Z,101243.16
2022-11-13T18:03:28.350Z,101245.80
2022-11-13T18:04:30.679Z,101248.34
2022-11-13T18:05:40.345Z,101240.28
2022-11-13T18:06:39.568Z,101236.84
2022-11-13T18:07:41.690Z,101239.58
2022-11-13T18:08:44.818Z,101234.30
2022-11-13T18:09:46.694Z,101234.39
2022-11-13T18:10:49.169Z,101242.31
2022-11-13T18:11:51.228Z,101237.09
2022-11-13T18:12:53.915Z,101236.23
2022-11-13T18:13:56.625Z,101241.42
2022-11-13T18:14:58.535Z,101230.95
2022-11-13T18:16:06.441Z,101238.03
2022-11-13T18:17:09.726Z,101237.27
2022-11-13T18:18:11.763Z,101242.50
2022-11-13T18:19:14.964Z,101234.86
2022-11-13T18:20:17.957Z,101238.21
2022-11-13T18:21:23.855Z,101238.97
2022-11-13T18:22:25.945Z,101236.38
2022-11-13T18:23:28.031Z,101233.20
2022-11-13T18:24:30.755Z,101236.56
2022-11-13T18:25:39.450Z,101236.56
2022-11-13T18:26:56.782Z,101233.11
2022-11-13T18:27:59.845Z,101239.38
2022-11-13T18:29:03.039Z,101238.26
2022-11-13T18:30:07.964Z,101232.22
2022-11-13T18:31:12.701Z,101237.22
2022-11-13T18:32:16.735Z,101234.63
2022-11-13T18:33:21.930Z,101241.75
2022-11-13T18:34:24.224Z,101235.66
2022-11-13T18:35:26.530Z,101239.16
2022-11-13T18:36:29.950Z,101232.22
2022-11-13T18:37:34.185Z,101239.55
2022-11-13T18:38:37.604Z,101233.11
2022-11-13T18:39:39.966Z,101216.78
2022-11-13T18:40:42.130Z,101242.59
2022-11-13T18:41:46.079Z,101241.89
2022-11-13T18:43:13.752Z,101232.93
2022-11-13T18:44:36.680Z,101234.77
2022-11-13T18:45:42.488Z,101236.11
2022-11-13T18:46:46.962Z,101236.11
2022-11-13T18:47:48.971Z,101227.20
2022-11-13T18:48:50.988Z,101227.92
2022-11-13T18:49:54.088Z,101236.78
2022-11-13T18:50:59.464Z,101237.58
2022-11-13T18:52:01.433Z,101233.97
2022-11-13T18:53:06.499Z,101228.11
2022-11-13T18:54:27.834Z,101234.05
2022-11-13T18:55:21.575Z,101238.39
2022-11-13T18:56:27.067Z,101236.95
2022-11-13T18:57:28.983Z,101227.02
2022-11-13T18:58:31.738Z,101234.86
2022-11-13T18:59:34.394Z,101231.41
2022-11-13T19:00:38.091Z,101233.02
2022-11-13T19:01:40.125Z,101232.22
2022-11-13T19:02:42.155Z,101227.83
2022-11-13T19:04:08.206Z,101228.64
2022-11-13T19:04:48.665Z,101233.92
2022-11-13T19:05:50.687Z,101236.69
2022-11-13T19:06:53.964Z,101229.66
2022-11-13T19:07:56.007Z,101230.70
2022-11-13T19:09:03.607Z,101224.38
2022-11-13T19:10:06.994Z,101235.70
2022-11-13T19:11:18.127Z,101240.22
2022-11-13T19:12:20.140Z,101235.03
2022-11-13T19:13:23.229Z,101235.03
2022-11-13T19:14:25.190Z,101224.38
2022-11-13T19:15:27.086Z,101223.22
2022-11-13T19:16:32.531Z,101223.22
2022-11-13T19:17:34.511Z,101224.47
2022-11-13T19:18:38.984Z,101219.28
2022-11-13T19:19:41.001Z,101226.22
2022-11-13T19:20:43.078Z,101226.17
2022-11-13T19:21:45.973Z,101223.48
2022-11-13T19:22:48.347Z,101230.47
2022-11-13T19:23:50.638Z,101227.83
2022-11-13T19:24:52.533Z,101223.53
2022-11-13T19:25:54.627Z,101221.66
2022-11-13T19:26:56.586Z,101221.70
2022-11-13T19:27:58.850Z,101224.47
2022-11-13T19:29:00.723Z,101238.66
2022-11-13T19:30:03.715Z,101230.61
2022-11-13T19:31:16.304Z,101231.41
2022-11-13T19:32:18.472Z,101233.11
2022-11-13T19:33:25.178Z,101236.87
2022-11-13T19:34:27.289Z,101241.13
2022-11-13T19:35:30.018Z,101244.65
2022-11-13T19:36:33.933Z,101246.41
2022-11-13T19:37:35.883Z,101239.38
2022-11-13T19:38:38.995Z,101245.73
2022-11-13T19:39:41.040Z,101245.59
2022-11-13T19:40:49.925Z,101253.42
2022-11-13T19:41:51.835Z,101243.00
2022-11-13T19:42:54.865Z,101245.64
2022-11-13T19:43:59.288Z,101242.95
2022-11-13T19:45:02.252Z,101242.91
2022-11-13T19:46:06.832Z,101243.86
2022-11-13T19:47:09.192Z,101250.16
2022-11-13T19:48:17.536Z,101248.23
2022-11-13T19:49:15.817Z,101254.59
2022-11-13T19:50:18.088Z,101248.46
2022-11-13T19:52:35.885Z,101248.38
2022-11-13T19:53:39.884Z,101249.44
2022-11-13T19:54:42.280Z,101245.86
2022-11-13T19:55:55.286Z,101245.01
2022-11-13T19:56:57.708Z,101244.03
2022-11-13T19:58:00.433Z,101245.82
2022-11-13T19:59:02.551Z,101251.05
2022-11-13T20:00:06.295Z,101259.78
2022-11-13T20:01:10.544Z,101252.08
2022-11-13T20:02:12.805Z,101252.08
2022-11-13T20:03:16.517Z,101254.67
2022-11-13T20:04:18.553Z,101246.30
2022-11-13T20:05:21.169Z,101255.61
2022-11-13T20:06:24.910Z,101253.32
2022-11-13T20:07:27.696Z,101265.36
2022-11-13T20:08:30.089Z,101260.77
2022-11-13T20:09:32.363Z,101257.48
2022-11-13T20:10:34.502Z,101257.66
2022-11-13T20:11:37.528Z,101241.82
2022-11-13T20:12:39.393Z,101247.10
2022-11-13T20:13:42.674Z,101249.61
2022-11-13T20:14:44.561Z,101249.70
2022-11-13T20:15:54.493Z,101252.20
2022-11-13T20:16:56.530Z,101244.33
2022-11-13T20:17:58.485Z,101230.11
2022-11-13T20:19:00.354Z,101232.89
2022-11-13T20:20:02.974Z,101239.99
2022-11-13T20:21:05.222Z,101235.56
2022-11-13T20:22:08.672Z,101247.95
2022-11-13T20:23:10.557Z,101249.06
2022-11-13T20:24:12.694Z,101255.15
2022-11-13T20:25:14.564Z,101254.25
2022-11-13T20:26:17.482Z,101257.66
2022-11-13T20:27:20.373Z,101257.91
2022-11-13T20:28:23.377Z,101251.61
2022-11-13T20:29:25.368Z,101253.41
2022-11-13T20:30:27.409Z,101260.72
2022-11-13T20:31:30.448Z,101253.30
2022-11-13T20:32:38.133Z,101252.53